createdAt,value
2022-12-08T00:00:19.571Z,-1.76
2022-12-08T00:03:44.578Z,-1.78
2022-12-08T00:07:07.880Z,-1.78
2022-12-08T00:10:46.577Z,-1.76
2022-12-08T00:13:38.799Z,-1.78
2022-12-08T00:16:44.336Z,-1.80
2022-12-08T00:19:50.553Z,-1.82
2022-12-08T00:22:55.851Z,-1.84
2022-12-08T00:26:04.463Z,-1.87
2022-12-08T00:29:14.480Z,-1.90
2022-12-08T00:32:22.484Z,-1.91
2022-12-08T00:35:27.828Z,-1.89
2022-12-08T00:38:33.247Z,-1.89
2022-12-08T00:41:56.097Z,-1.89
2022-12-08T00:45:01.649Z,-1.91
2022-12-08T00:48:07.622Z,-1.93
2022-12-08T00:51:13.156Z,-1.93
2022-12-08T00:54:18.477Z,-1.94
2022-12-08T00:57:23.925Z,-1.97
2022-12-08T01:00:29.518Z,-1.99
2022-12-08T01:03:34.915Z,-2.03
2022-12-08T01:06:40.696Z,-2.04
2022-12-08T01:09:46.125Z,-2.06
2022-12-08T01:12:51.457Z,-2.10
2022-12-08T01:15:56.746Z,-2.13
2022-12-08T01:19:02.379Z,-2.17
2022-12-08T01:22:07.592Z,-2.20
2022-12-08T01:25:13.580Z,-2.23
2022-12-08T01:28:20.443Z,-2.25
2022-12-08T01:31:25.919Z,-2.27
2022-12-08T01:34:31.310Z,-2.30
2022-12-08T01:37:36.779Z,-2.33
2022-12-08T01:40:42.222Z,-2.35
2022-12-08T01:43:57.462Z,-2.37
2022-12-08T01:47:03.178Z,-2.41
2022-12-08T01:50:11.628Z,-2.43
2022-12-08T01:53:19.084Z,-2.44
2022-12-08T01:56:29.061Z,-2.45
2022-12-08T01:59:36.655Z,-2.48
2022-12-08T02:02:47.751Z,-2.51
2022-12-08T02:05:53.584Z,-2.55
2022-12-08T02:08:59.194Z,-2.60
2022-12-08T02:12:05.014Z,-2.64
2022-12-08T02:15:11.200Z,-2.68
2022-12-08T02:18:22.924Z,-2.72
2022-12-08T02:21:30.387Z,-2.73
2022-12-08T02:24:38.453Z,-2.72
2022-12-08T02:27:49.160Z,-2.71
2022-12-08T02:30:59.340Z,-2.72
2022-12-08T02:34:09.745Z,-2.69
2022-12-08T02:37:20.117Z,-2.69
2022-12-08T02:40:29.791Z,-2.69
2022-12-08T02:43:38.694Z,-2.70
2022-12-08T02:46:46.375Z,-2.72
2022-12-08T02:49:51.895Z,-2.74
2022-12-08T02:52:57.629Z,-2.73
2022-12-08T02:56:04.767Z,-2.71
2022-12-08T02:59:16.225Z,-2.70
2022-12-08T03:02:31.005Z,-2.69
2022-12-08T03:05:48.026Z,-2.71
2022-12-08T03:08:56.765Z,-2.73
2022-12-08T03:12:06.040Z,-2.75
2022-12-08T03:15:15.464Z,-2.78
2022-12-08T03:18:24.776Z,-2.78
2022-12-08T03:21:31.017Z,-2.79
2022-12-08T03:24:38.053Z,-2.78
2022-12-08T03:27:46.132Z,-2.78
2022-12-08T03:30:53.919Z,-2.79
2022-12-08T03:34:00.723Z,-2.83
2022-12-08T03:37:06.129Z,-2.88
2022-12-08T03:40:15.067Z,-2.92
2022-12-08T03:43:20.427Z,-2.99
2022-12-08T03:49:31.369Z,-3.12
2022-12-08T03:52:39.170Z,-3.14
2022-12-08T03:55:44.766Z,-3.14
2022-12-08T03:58:50.013Z,-3.08
2022-12-08T04:01:55.468Z,-3.03
2022-12-08T04:05:01.254Z,-3.00
2022-12-08T04:08:06.885Z,-2.98
2022-12-08T04:11:12.570Z,-2.95
2022-12-08T04:14:18.023Z,-2.94
2022-12-08T04:17:23.290Z,-2.92
2022-12-08T04:20:28.542Z,-2.91
2022-12-08T04:23:33.962Z,-2.91
2022-12-08T04:26:39.408Z,-2.91
2022-12-08T04:29:44.626Z,-2.92
2022-12-08T04:32:49.907Z,-2.94
2022-12-08T04:35:55.225Z,-2.94
2022-12-08T04:39:01.340Z,-2.92
2022-12-08T04:42:06.800Z,-2.86
2022-12-08T04:45:12.626Z,-2.81
2022-12-08T04:48:17.879Z,-2.80
2022-12-08T04:51:23.242Z,-2.76
2022-12-08T04:54:28.786Z,-2.73
2022-12-08T04:57:34.176Z,-2.74
2022-12-08T05:00:39.584Z,-2.74
2022-12-08T05:03:44.962Z,-2.73
2022-12-08T05:06:50.324Z,-2.68
2022-12-08T05:09:55.680Z,-2.65
2022-12-08T05:13:01.622Z,-2.62
2022-12-08T05:16:08.653Z,-2.61
2022-12-08T05:19:14.828Z,-2.61
2022-12-08T05:22:20.323Z,-2.58
2022-12-08T05:25:25.694Z,-2.60
2022-12-08T05:28:46.346Z,-2.64
2022-12-08T05:31:51.755Z,-2.68
2022-12-08T05:34:57.097Z,-2.66
2022-12-08T05:38:02.471Z,-2.61
2022-12-08T05:41:08.643Z,-2.62
2022-12-08T05:44:14.052Z,-2.62
2022-12-08T05:47:19.396Z,-2.59
2022-12-08T05:50:24.860Z,-2.56
2022-12-08T05:53:33.714Z,-2.53
2022-12-08T05:56:39.076Z,-2.52
2022-12-08T05:59:44.343Z,-2.51
2022-12-08T06:02:49.742Z,-2.51
2022-12-08T06:05:56.266Z,-2.51
2022-12-08T06:09:02.853Z,-2.48
2022-12-08T06:12:08.764Z,-2.43
2022-12-08T06:15:14.146Z,-2.35
2022-12-08T06:18:19.470Z,-2.34
2022-12-08T06:21:24.862Z,-2.30
2022-12-08T06:24:30.520Z,-2.26
2022-12-08T06:27:36.048Z,-2.19
2022-12-08T06:30:41.488Z,-2.12
2022-12-08T06:33:47.452Z,-2.04
2022-12-08T06:36:53.022Z,-1.97
2022-12-08T06:39:58.486Z,-1.91
2022-12-08T06:43:03.919Z,-1.82
2022-12-08T06:46:10.198Z,-1.75
2022-12-08T06:49:15.569Z,-1.73
2022-12-08T06:52:20.959Z,-1.70
2022-12-08T06:55:57.477Z,-1.68
2022-12-08T06:58:52.982Z,-1.67
2022-12-08T07:01:58.695Z,-1.63
2022-12-08T07:05:04.598Z,-1.56
2022-12-08T07:08:10.205Z,-1.45
2022-12-08T07:11:21.204Z,-1.36
2022-12-08T07:14:27.841Z,-1.28
2022-12-08T07:17:33.419Z,-1.21
2022-12-08T07:20:38.856Z,-1.16
2022-12-08T07:23:46.108Z,-1.12
2022-12-08T07:26:51.682Z,-1.08
2022-12-08T07:29:57.098Z,-1.04
2022-12-08T07:33:04.714Z,-1.00
2022-12-08T07:36:10.757Z,-0.98
2022-12-08T07:39:16.106Z,-0.98
2022-12-08T07:42:21.646Z,-0.96
2022-12-08T07:45:31.452Z,-0.93
2022-12-08T07:48:37.638Z,-0.89
2022-12-08T07:51:43.178Z,-0.84
2022-12-08T07:54:48.599Z,-0.79
2022-12-08T07:57:53.969Z,-0.74
2022-12-08T08:00:59.487Z,-0.68
2022-12-08T08:04:05.764Z,-0.63
2022-12-08T08:07:12.863Z,-0.57
2022-12-08T08:10:19.136Z,-0.52
2022-12-08T08:13:24.579Z,-0.51
2022-12-08T08:16:34.954Z,-0.50
2022-12-08T08:19:43.777Z,-0.50
2022-12-08T08:22:52.314Z,-0.48
2022-12-08T08:26:02.622Z,-0.46
2022-12-08T08:29:08.187Z,-0.40
2022-12-08T08:32:13.696Z,-0.35
2022-12-08T08:35:19.102Z,-0.28
2022-12-08T08:38:25.180Z,-0.22
2022-12-08T08:41:30.509Z,-0.15
2022-12-08T08:44:37.555Z,-0.07
2022-12-08T08:47:43.044Z,0.02
2022-12-08T08:50:48.513Z,0.09
2022-12-08T08:53:54.193Z,0.15
2022-12-08T08:57:00.484Z,0.17
2022-12-08T09:00:07.516Z,0.18
2022-12-08T09:03:13.919Z,0.23
2022-12-08T09:06:20.267Z,0.30
2022-12-08T09:09:25.743Z,0.38
2022-12-08T09:12:31.137Z,0.44
2022-12-08T09:15:36.497Z,0.49
2022-12-08T09:18:42.001Z,0.54
2022-12-08T09:21:49.878Z,0.59
2022-12-08T09:24:55.272Z,0.67
2022-12-08T09:28:00.654Z,0.73
2022-12-08T09:31:06.020Z,0.80
2022-12-08T09:34:13.310Z,0.98
2022-12-08T09:37:21.055Z,1.11
2022-12-08T09:40:27.990Z,1.19
2022-12-08T09:43:46.608Z,1.34
2022-12-08T09:46:53.469Z,1.50
2022-12-08T09:50:07.960Z,1.53
2022-12-08T09:53:17.120Z,1.50
2022-12-08T09:56:24.694Z,1.49
2022-12-08T09:59:33.137Z,1.38
2022-12-08T10:02:41.020Z,1.23
2022-12-08T10:05:48.362Z,1.14
2022-12-08T10:09:00.187Z,1.08
2022-12-08T10:12:11.266Z,1.06
2022-12-08T10:15:27.824Z,1.07
2022-12-08T10:18:35.155Z,1.15
2022-12-08T10:21:41.939Z,1.32
2022-12-08T10:24:52.443Z,1.49
2022-12-08T10:27:59.611Z,1.59
2022-12-08T10:31:05.660Z,1.59
2022-12-08T10:34:15.772Z,1.61
2022-12-08T10:37:21.393Z,1.72
2022-12-08T10:40:28.663Z,1.80
2022-12-08T10:43:34.244Z,1.84
2022-12-08T10:46:39.751Z,1.87
2022-12-08T10:49:48.116Z,1.83
2022-12-08T10:52:58.248Z,1.86
2022-12-08T10:56:16.131Z,1.95
2022-12-08T10:59:21.664Z,1.96
2022-12-08T11:02:27.165Z,1.94
2022-12-08T11:05:34.767Z,1.92
2022-12-08T11:08:47.732Z,1.90
2022-12-08T11:11:53.835Z,1.90
2022-12-08T11:15:03.367Z,1.93
2022-12-08T11:18:24.619Z,1.93
2022-12-08T11:21:35.895Z,2.00
2022-12-08T11:24:41.297Z,2.04
2022-12-08T11:27:48.674Z,2.03
2022-12-08T11:30:58.807Z,2.03
2022-12-08T11:34:07.897Z,2.07
2022-12-08T11:37:18.727Z,2.09
2022-12-08T11:40:26.478Z,2.14
2022-12-08T11:43:37.428Z,2.17
2022-12-08T11:46:44.987Z,2.17
2022-12-08T11:49:56.939Z,2.14
2022-12-08T11:53:02.854Z,2.10
2022-12-08T11:56:13.025Z,2.08
2022-12-08T11:59:21.024Z,2.11
2022-12-08T12:02:29.044Z,2.14
2022-12-08T12:09:12.981Z,2.12
2022-12-08T12:12:27.481Z,2.12
2022-12-08T12:15:49.746Z,2.14
2022-12-08T12:19:00.572Z,2.17
2022-12-08T12:22:13.533Z,2.22
2022-12-08T12:25:23.773Z,2.29
2022-12-08T12:28:30.676Z,2.42
2022-12-08T12:31:37.982Z,2.57
2022-12-08T12:34:49.676Z,2.64
2022-12-08T12:37:57.541Z,2.70
2022-12-08T12:41:04.070Z,2.71
2022-12-08T12:44:24.116Z,2.77
2022-12-08T12:47:43.182Z,2.87
2022-12-08T12:50:49.195Z,3.00
2022-12-08T12:53:54.722Z,3.07
2022-12-08T12:57:17.818Z,3.15
2022-12-08T13:00:24.932Z,3.29
2022-12-08T13:03:30.411Z,3.35
2022-12-08T13:06:41.573Z,3.39
2022-12-08T13:09:47.297Z,3.36
2022-12-08T13:13:07.243Z,3.35
2022-12-08T13:16:19.727Z,3.30
2022-12-08T13:19:25.926Z,3.25
2022-12-08T13:22:48.794Z,3.21
2022-12-08T13:26:09.352Z,3.12
2022-12-08T13:29:22.829Z,3.03
2022-12-08T13:33:16.787Z,2.91
2022-12-08T13:36:27.932Z,2.81
2022-12-08T13:39:38.169Z,2.72
2022-12-08T13:42:50.236Z,2.61
2022-12-08T13:59:55.134Z,2.16
2022-12-08T14:03:02.109Z,2.13
2022-12-08T14:06:12.931Z,2.11
2022-12-08T14:09:20.331Z,2.10
2022-12-08T14:12:27.670Z,2.08
2022-12-08T14:15:38.354Z,2.04
2022-12-08T14:18:44.219Z,1.99
2022-12-08T14:21:52.566Z,1.95
2022-12-08T14:25:00.459Z,1.93
2022-12-08T14:28:06.400Z,1.91
2022-12-08T14:31:15.066Z,1.90
2022-12-08T14:34:20.738Z,1.88
2022-12-08T14:37:28.239Z,1.85
2022-12-08T14:40:35.395Z,1.80
2022-12-08T14:43:43.118Z,1.74
2022-12-08T14:47:05.440Z,1.67
2022-12-08T14:50:26.503Z,1.58
2022-12-08T14:53:37.110Z,1.52
2022-12-08T14:56:48.723Z,1.47
2022-12-08T14:59:54.192Z,1.42
2022-12-08T15:03:07.042Z,1.38
2022-12-08T15:06:13.264Z,1.34
2022-12-08T15:09:28.929Z,1.29
2022-12-08T15:12:34.596Z,1.26
2022-12-08T15:15:50.378Z,1.25
2022-12-08T15:19:04.974Z,1.26
2022-12-08T15:22:18.818Z,1.28
2022-12-08T15:25:24.942Z,1.31
2022-12-08T15:28:30.840Z,1.32
2022-12-08T15:31:36.664Z,1.33
2022-12-08T15:34:42.179Z,1.32
2022-12-08T15:37:47.889Z,1.27
2022-12-08T15:40:53.804Z,1.22
2022-12-08T15:43:59.188Z,1.18
2022-12-08T15:47:04.665Z,1.12
2022-12-08T15:50:15.241Z,1.06
2022-12-08T15:53:20.964Z,1.05
2022-12-08T15:56:29.009Z,1.06
2022-12-08T15:59:37.080Z,1.10
2022-12-08T16:03:13.175Z,1.15
2022-12-08T16:09:40.398Z,1.27
2022-12-08T16:16:31.237Z,1.40
2022-12-08T16:19:37.096Z,1.44
2022-12-08T16:23:07.927Z,1.44
2022-12-08T16:29:37.302Z,1.49
2022-12-08T16:32:42.872Z,1.52
2022-12-08T16:35:48.463Z,1.56
2022-12-08T16:38:53.941Z,1.60
2022-12-08T16:42:16.766Z,1.65
2022-12-08T16:45:23.800Z,1.66
2022-12-08T16:48:29.517Z,1.64
2022-12-08T16:51:34.944Z,1.60
2022-12-08T16:54:40.401Z,1.58
2022-12-08T16:57:46.982Z,1.60
2022-12-08T17:00:52.888Z,1.61
2022-12-08T17:04:29.805Z,1.62
2022-12-08T17:07:23.954Z,1.64
2022-12-08T17:10:31.722Z,1.66
2022-12-08T17:13:37.596Z,1.65
2022-12-08T17:16:43.501Z,1.66
2022-12-08T17:19:49.102Z,1.69
2022-12-08T17:22:55.945Z,1.71
2022-12-08T17:26:02.019Z,1.73
2022-12-08T17:29:07.473Z,1.74
2022-12-08T17:32:13.207Z,1.72
2022-12-08T17:35:19.703Z,1.71
2022-12-08T17:38:25.299Z,1.69
2022-12-08T17:41:31.206Z,1.67
2022-12-08T17:44:36.763Z,1.66
2022-12-08T17:47:42.194Z,1.68
2022-12-08T17:50:47.902Z,1.68
2022-12-08T17:53:53.054Z,1.67
2022-12-08T17:56:59.149Z,1.65
2022-12-08T18:00:05.625Z,1.65
2022-12-08T18:03:17.354Z,1.65
2022-12-08T18:06:25.691Z,1.67
2022-12-08T18:09:33.835Z,1.68
2022-12-08T18:12:39.487Z,1.69
2022-12-08T18:15:45.435Z,1.68
2022-12-08T18:18:51.305Z,1.66
2022-12-08T18:21:56.587Z,1.65
2022-12-08T18:25:02.026Z,1.65
2022-12-08T18:28:07.598Z,1.63
2022-12-08T18:31:14.608Z,1.59
2022-12-08T18:34:20.116Z,1.55
2022-12-08T18:37:25.602Z,1.51
2022-12-08T18:40:32.450Z,1.49
2022-12-08T18:43:38.388Z,1.47
2022-12-08T18:46:44.320Z,1.45
2022-12-08T18:49:49.687Z,1.45
2022-12-08T18:52:55.346Z,1.44
2022-12-08T18:56:00.674Z,1.41
2022-12-08T18:59:07.239Z,1.39
2022-12-08T19:02:13.009Z,1.41
2022-12-08T19:05:18.646Z,1.41
2022-12-08T19:08:29.714Z,1.41
2022-12-08T19:11:39.148Z,1.41
2022-12-08T19:14:44.638Z,1.41
2022-12-08T19:17:50.150Z,1.41
2022-12-08T19:20:56.990Z,1.42
2022-12-08T19:24:03.898Z,1.42
2022-12-08T19:27:09.213Z,1.40
2022-12-08T19:30:16.634Z,1.38
2022-12-08T19:33:22.454Z,1.37
2022-12-08T19:36:30.734Z,1.39
2022-12-08T19:39:54.227Z,1.42
2022-12-08T19:43:17.314Z,1.41
2022-12-08T19:46:22.834Z,1.34
2022-12-08T19:49:31.069Z,1.27
2022-12-08T19:52:36.721Z,1.17
2022-12-08T19:55:42.903Z,1.07
2022-12-08T19:58:48.424Z,0.99
2022-12-08T20:01:55.995Z,0.91
2022-12-08T20:05:02.122Z,0.80
2022-12-08T20:08:08.510Z,0.68
2022-12-08T20:11:14.035Z,0.61
2022-12-08T20:14:19.556Z,0.56
2022-12-08T20:17:25.047Z,0.51
2022-12-08T20:20:30.498Z,0.50
2022-12-08T20:23:36.241Z,0.43
2022-12-08T20:26:41.592Z,0.35
2022-12-08T20:29:46.843Z,0.26
2022-12-08T20:32:52.470Z,0.17
2022-12-08T20:36:01.439Z,0.09
2022-12-08T20:39:10.239Z,0.06
2022-12-08T20:42:15.811Z,0.08
2022-12-08T20:45:23.450Z,0.10
2022-12-08T20:48:28.903Z,0.09
2022-12-08T20:51:34.644Z,0.08
2022-12-08T20:54:40.079Z,0.08
2022-12-08T20:57:45.521Z,0.07
2022-12-08T21:00:51.510Z,0.06
2022-12-08T21:03:57.242Z,0.06
2022-12-08T21:07:03.153Z,0.05
2022-12-08T21:10:10.264Z,0.04
2022-12-08T21:13:16.764Z,0.01
2022-12-08T21:16:22.171Z,-0.02
2022-12-08T21:19:27.553Z,-0.05
2022-12-08T21:22:33.079Z,-0.09
2022-12-08T21:25:42.332Z,-0.12
2022-12-08T21:28:58.909Z,-0.14
2022-12-08T21:32:04.366Z,-0.13
2022-12-08T21:35:10.850Z,-0.12
2022-12-08T21:38:16.463Z,-0.08
2022-12-08T21:41:42.969Z,-0.05
2022-12-08T21:44:48.582Z,-0.01
2022-12-08T21:47:54.952Z,0.03
2022-12-08T21:51:04.462Z,0.07
2022-12-08T21:54:15.016Z,0.10
2022-12-08T21:57:24.634Z,0.13
2022-12-08T22:00:29.952Z,0.15
2022-12-08T22:03:35.340Z,0.12
2022-12-08T22:06:41.223Z,0.09
2022-12-08T22:09:47.405Z,0.05
2022-12-08T22:12:54.273Z,0.00
2022-12-08T22:16:00.597Z,-0.03
2022-12-08T22:19:06.416Z,-0.07
2022-12-08T22:22:12.128Z,-0.08
2022-12-08T22:25:18.889Z,-0.10
2022-12-08T22:28:24.612Z,-0.11
2022-12-08T22:31:30.148Z,-0.09
2022-12-08T22:34:35.856Z,-0.07
2022-12-08T22:37:41.889Z,-0.06
2022-12-08T22:40:47.620Z,-0.02
2022-12-08T22:43:52.894Z,0.03
2022-12-08T22:46:58.403Z,0.07
2022-12-08T22:50:04.491Z,0.13
2022-12-08T22:53:10.958Z,0.19
2022-12-08T22:56:16.684Z,0.22
2022-12-08T22:59:22.168Z,0.23
2022-12-08T23:02:27.788Z,0.22
2022-12-08T23:05:35.112Z,0.21
2022-12-08T23:08:41.046Z,0.24
2022-12-08T23:11:46.502Z,0.26
2022-12-08T23:14:52.209Z,0.28
2022-12-08T23:17:58.013Z,0.31
2022-12-08T23:21:05.714Z,0.34
2022-12-08T23:24:11.317Z,0.34
2022-12-08T23:27:16.662Z,0.34
2022-12-08T23:30:26.175Z,0.33
2022-12-08T23:33:31.884Z,0.34
2022-12-08T23:36:38.074Z,0.30
2022-12-08T23:39:44.086Z,0.25
2022-12-08T23:42:50.082Z,0.20
2022-12-08T23:45:56.089Z,0.19
2022-12-08T23:49:02.363Z,0.22
2022-12-08T23:52:08.336Z,0.27
2022-12-08T23:55:14.118Z,0.29
2022-12-08T23:58:19.556Z,0.29
